sensor_id;sensor_type;location;lat;lon;timestamp;P1;durP1;ratioP1;P2;durP2;ratioP2
73428;SDS011;61643;49.564;17.412;2023-10-08T00:02:45;7.63;;;2.72;;
73428;SDS011;61643;49.564;17.412;2023-10-08T00:05:11;8.23;;;2.00;;
73428;SDS011;61643;49.564;17.412;2023-10-08T00:07:40;11.85;;;2.10;;
73428;SDS011;61643;49.564;17.412;2023-10-08T00:10:08;9.35;;;1.90;;
73428;SDS011;61643;49.564;17.412;2023-10-08T00:12:34;6.78;;;1.98;;
73428;SDS011;61643;49.564;17.412;2023-10-08T00:15:00;6.63;;;1.90;;
73428;SDS011;61643;49.564;17.412;2023-10-08T00:17:26;6.20;;;1.90;;
73428;SDS011;61643;49.564;17.412;2023-10-08T00:19:52;4.75;;;1.80;;
73428;SDS011;61643;49.564;17.412;2023-10-08T00:22:18;6.93;;;2.13;;
73428;SDS011;61643;49.564;17.412;2023-10-08T00:24:45;6.93;;;2.30;;
73428;SDS011;61643;49.564;17.412;2023-10-08T00:27:12;5.65;;;2.10;;
73428;SDS011;61643;49.564;17.412;2023-10-08T00:29:43;7.05;;;2.25;;
73428;SDS011;61643;49.564;17.412;2023-10-08T00:32:09;9.32;;;2.13;;
73428;SDS011;61643;49.564;17.412;2023-10-08T00:34:39;6.95;;;2.40;;
73428;SDS011;61643;49.564;17.412;2023-10-08T00:37:07;4.10;;;1.58;;
73428;SDS011;61643;49.564;17.412;2023-10-08T00:39:39;5.07;;;1.70;;
73428;SDS011;61643;49.564;17.412;2023-10-08T00:42:06;5.47;;;1.92;;
73428;SDS011;61643;49.564;17.412;2023-10-08T00:44:34;7.45;;;2.03;;
73428;SDS011;61643;49.564;17.412;2023-10-08T00:47:13;7.50;;;2.10;;
73428;SDS011;61643;49.564;17.412;2023-10-08T00:49:42;5.05;;;2.17;;
73428;SDS011;61643;49.564;17.412;2023-10-08T00:52:09;7.53;;;2.88;;
73428;SDS011;61643;49.564;17.412;2023-10-08T00:54:37;7.88;;;2.10;;
73428;SDS011;61643;49.564;17.412;2023-10-08T00:57:27;7.03;;;2.50;;
73428;SDS011;61643;49.564;17.412;2023-10-08T00:59:55;8.98;;;2.53;;
73428;SDS011;61643;49.564;17.412;2023-10-08T01:02:27;4.88;;;1.85;;
73428;SDS011;61643;49.564;17.412;2023-10-08T01:05:15;8.82;;;2.10;;
73428;SDS011;61643;49.564;17.412;2023-10-08T01:07:49;9.43;;;2.17;;
73428;SDS011;61643;49.564;17.412;2023-10-08T01:10:17;6.88;;;1.90;;
73428;SDS011;61643;49.564;17.412;2023-10-08T01:12:47;7.00;;;2.30;;
73428;SDS011;61643;49.564;17.412;2023-10-08T01:15:37;6.53;;;2.40;;
73428;SDS011;61643;49.564;17.412;2023-10-08T01:18:03;5.30;;;1.80;;
73428;SDS011;61643;49.564;17.412;2023-10-08T01:20:32;5.07;;;2.22;;
73428;SDS011;61643;49.564;17.412;2023-10-08T01:23:04;5.00;;;1.83;;
73428;SDS011;61643;49.564;17.412;2023-10-08T01:25:39;7.25;;;2.72;;
73428;SDS011;61643;49.564;17.412;2023-10-08T01:28:07;8.52;;;2.13;;
73428;SDS011;61643;49.564;17.412;2023-10-08T01:30:48;7.25;;;1.92;;
73428;SDS011;61643;49.564;17.412;2023-10-08T01:33:18;5.47;;;2.17;;
73428;SDS011;61643;49.564;17.412;2023-10-08T01:35:48;5.57;;;2.20;;
73428;SDS011;61643;49.564;17.412;2023-10-08T01:38:17;5.38;;;2.15;;
73428;SDS011;61643;49.564;17.412;2023-10-08T01:40:51;4.95;;;1.77;;
73428;SDS011;61643;49.564;17.412;2023-10-08T01:43:18;11.18;;;2.60;;
73428;SDS011;61643;49.564;17.412;2023-10-08T01:45:44;8.40;;;2.30;;
73428;SDS011;61643;49.564;17.412;2023-10-08T01:48:14;5.25;;;2.17;;
73428;SDS011;61643;49.564;17.412;2023-10-08T01:50:53;6.72;;;2.22;;
73428;SDS011;61643;49.564;17.412;2023-10-08T01:53:21;8.40;;;2.00;;
73428;SDS011;61643;49.564;17.412;2023-10-08T01:55:47;7.13;;;2.17;;
73428;SDS011;61643;49.564;17.412;2023-10-08T01:58:17;5.82;;;2.05;;
73428;SDS011;61643;49.564;17.412;2023-10-08T02:00:47;7.40;;;2.30;;
73428;SDS011;61643;49.564;17.412;2023-10-08T02:03:14;6.13;;;2.33;;
73428;SDS011;61643;49.564;17.412;2023-10-08T02:05:42;5.93;;;2.22;;
73428;SDS011;61643;49.564;17.412;2023-10-08T02:08:09;5.35;;;2.25;;
73428;SDS011;61643;49.564;17.412;2023-10-08T02:10:37;4.25;;;1.90;;
73428;SDS011;61643;49.564;17.412;2023-10-08T02:13:07;3.85;;;1.95;;
73428;SDS011;61643;49.564;17.412;2023-10-08T02:15:34;6.85;;;2.08;;
73428;SDS011;61643;49.564;17.412;2023-10-08T02:18:02;4.00;;;1.70;;
73428;SDS011;61643;49.564;17.412;2023-10-08T02:20:29;6.97;;;2.20;;
73428;SDS011;61643;49.564;17.412;2023-10-08T02:22:55;6.85;;;2.40;;
73428;SDS011;61643;49.564;17.412;2023-10-08T02:25:21;8.65;;;2.40;;
73428;SDS011;61643;49.564;17.412;2023-10-08T02:27:48;7.38;;;2.17;;
73428;SDS011;61643;49.564;17.412;2023-10-08T02:30:15;7.25;;;2.45;;
73428;SDS011;61643;49.564;17.412;2023-10-08T02:32:43;8.35;;;2.10;;
73428;SDS011;61643;49.564;17.412;2023-10-08T02:35:10;5.68;;;2.17;;
73428;SDS011;61643;49.564;17.412;2023-10-08T02:37:39;6.78;;;2.55;;
73428;SDS011;61643;49.564;17.412;2023-10-08T02:40:09;8.25;;;2.17;;
73428;SDS011;61643;49.564;17.412;2023-10-08T02:42:47;6.85;;;2.17;;
73428;SDS011;61643;49.564;17.412;2023-10-08T02:45:14;5.57;;;2.00;;
73428;SDS011;61643;49.564;17.412;2023-10-08T02:50:11;8.32;;;2.25;;
73428;SDS011;61643;49.564;17.412;2023-10-08T02:52:37;5.57;;;2.05;;
73428;SDS011;61643;49.564;17.412;2023-10-08T02:55:03;7.07;;;2.25;;
73428;SDS011;61643;49.564;17.412;2023-10-08T02:57:30;7.47;;;2.30;;
73428;SDS011;61643;49.564;17.412;2023-10-08T02:59:57;5.00;;;2.08;;
73428;SDS011;61643;49.564;17.412;2023-10-08T03:02:23;7.57;;;2.60;;
73428;SDS011;61643;49.564;17.412;2023-10-08T03:04:51;5.47;;;2.00;;
73428;SDS011;61643;49.564;17.412;2023-10-08T03:07:18;6.82;;;2.22;;
73428;SDS011;61643;49.564;17.412;2023-10-08T03:09:48;7.25;;;2.33;;
73428;SDS011;61643;49.564;17.412;2023-10-08T03:12:16;6.07;;;2.15;;
73428;SDS011;61643;49.564;17.412;2023-10-08T03:14:43;5.35;;;2.42;;
73428;SDS011;61643;49.564;17.412;2023-10-08T03:17:29;4.63;;;2.40;;
73428;SDS011;61643;49.564;17.412;2023-10-08T03:19:56;4.13;;;2.00;;
73428;SDS011;61643;49.564;17.412;2023-10-08T03:22:27;6.32;;;2.08;;
73428;SDS011;61643;49.564;17.412;2023-10-08T03:24:59;6.43;;;2.65;;
73428;SDS011;61643;49.564;17.412;2023-10-08T03:27:41;9.70;;;2.45;;
73428;SDS011;61643;49.564;17.412;2023-10-08T03:30:07;6.43;;;2.10;;
73428;SDS011;61643;49.564;17.412;2023-10-08T03:32:40;3.95;;;2.20;;
73428;SDS011;61643;49.564;17.412;2023-10-08T03:35:08;6.38;;;2.40;;
73428;SDS011;61643;49.564;17.412;2023-10-08T03:37:36;7.03;;;2.40;;
73428;SDS011;61643;49.564;17.412;2023-10-08T03:40:07;9.07;;;2.22;;
73428;SDS011;61643;49.564;17.412;2023-10-08T03:43:12;6.47;;;2.40;;
73428;SDS011;61643;49.564;17.412;2023-10-08T03:45:49;8.45;;;2.75;;
73428;SDS011;61643;49.564;17.412;2023-10-08T03:48:19;6.93;;;2.38;;
73428;SDS011;61643;49.564;17.412;2023-10-08T03:50:48;9.82;;;3.00;;
73428;SDS011;61643;49.564;17.412;2023-10-08T03:53:22;7.50;;;1.92;;
73428;SDS011;61643;49.564;17.412;2023-10-08T03:55:48;5.53;;;2.50;;
73428;SDS011;61643;49.564;17.412;2023-10-08T03:58:17;6.60;;;2.22;;
73428;SDS011;61643;49.564;17.412;2023-10-08T04:00:55;6.38;;;2.33;;
73428;SDS011;61643;49.564;17.412;2023-10-08T04:03:37;7.60;;;3.05;;
73428;SDS011;61643;49.564;17.412;2023-10-08T04:06:21;5.82;;;2.42;;
73428;SDS011;61643;49.564;17.412;2023-10-08T04:08:54;9.77;;;2.67;;
73428;SDS011;61643;49.564;17.412;2023-10-08T04:11:24;7.88;;;2.38;;
73428;SDS011;61643;49.564;17.412;2023-10-08T04:14:10;7.03;;;2.60;;
73428;SDS011;61643;49.564;17.412;2023-10-08T04:16:36;8.27;;;3.05;;
73428;SDS011;61643;49.564;17.412;2023-10-08T04:19:03;5.82;;;2.60;;
73428;SDS011;61643;49.564;17.412;2023-10-08T04:21:30;5.32;;;2.58;;
73428;SDS011;61643;49.564;17.412;2023-10-08T04:23:59;8.75;;;3.17;;
73428;SDS011;61643;49.564;17.412;2023-10-08T04:26:30;9.23;;;2.80;;
73428;SDS011;61643;49.564;17.412;2023-10-08T04:28:59;10.55;;;2.42;;
73428;SDS011;61643;49.564;17.412;2023-10-08T04:31:32;5.88;;;2.42;;
73428;SDS011;61643;49.564;17.412;2023-10-08T04:34:05;4.45;;;2.55;;
73428;SDS011;61643;49.564;17.412;2023-10-08T04:36:48;8.85;;;2.90;;
73428;SDS011;61643;49.564;17.412;2023-10-08T04:39:20;7.07;;;2.40;;
73428;SDS011;61643;49.564;17.412;2023-10-08T04:42:06;6.70;;;2.45;;
73428;SDS011;61643;49.564;17.412;2023-10-08T04:44:36;5.28;;;2.40;;
73428;SDS011;61643;49.564;17.412;2023-10-08T04:47:05;9.93;;;2.78;;
73428;SDS011;61643;49.564;17.412;2023-10-08T04:49:35;6.50;;;2.70;;
73428;SDS011;61643;49.564;17.412;2023-10-08T04:52:05;5.93;;;2.92;;
73428;SDS011;61643;49.564;17.412;2023-10-08T04:54:44;7.03;;;2.58;;
73428;SDS011;61643;49.564;17.412;2023-10-08T04:57:17;5.32;;;2.40;;
73428;SDS011;61643;49.564;17.412;2023-10-08T04:59:47;6.22;;;2.75;;
73428;SDS011;61643;49.564;17.412;2023-10-08T05:02:16;6.28;;;2.88;;
73428;SDS011;61643;49.564;17.412;2023-10-08T05:04:46;6.40;;;2.50;;
73428;SDS011;61643;49.564;17.412;2023-10-08T05:07:33;5.55;;;2.72;;
73428;SDS011;61643;49.564;17.412;2023-10-08T05:10:11;2.65;;;0.90;;
73428;SDS011;61643;49.564;17.412;2023-10-08T05:15:27;0.60;;;0.40;;
73428;SDS011;61643;49.564;17.412;2023-10-08T05:18:01;0.82;;;0.40;;
73428;SDS011;61643;49.564;17.412;2023-10-08T05:20:49;0.75;;;0.20;;
73428;SDS011;61643;49.564;17.412;2023-10-08T05:23:17;0.40;;;0.20;;
73428;SDS011;61643;49.564;17.412;2023-10-08T05:25:47;1.83;;;1.05;;
73428;SDS011;61643;49.564;17.412;2023-10-08T05:28:38;1.30;;;0.90;;
73428;SDS011;61643;49.564;17.412;2023-10-08T05:31:23;0.98;;;0.40;;
73428;SDS011;61643;49.564;17.412;2023-10-08T05:34:08;0.17;;;0.10;;
73428;SDS011;61643;49.564;17.412;2023-10-08T05:36:58;0.75;;;0.00;;
73428;SDS011;61643;49.564;17.412;2023-10-08T05:39:30;0.30;;;0.00;;
73428;SDS011;61643;49.564;17.412;2023-10-08T05:42:16;0.05;;;0.05;;
73428;SDS011;61643;49.564;17.412;2023-10-08T05:44:45;0.00;;;0.00;;
73428;SDS011;61643;49.564;17.412;2023-10-08T05:47:16;0.20;;;0.05;;
73428;SDS011;61643;49.564;17.412;2023-10-08T05:49:54;0.00;;;0.00;;
73428;SDS011;61643;49.564;17.412;2023-10-08T05:52:39;0.13;;;0.10;;
73428;SDS011;61643;49.564;17.412;2023-10-08T05:55:33;0.13;;;0.10;;
73428;SDS011;61643;49.564;17.412;2023-10-08T05:58:10;0.50;;;0.45;;
73428;SDS011;61643;49.564;17.412;2023-10-08T06:00:50;0.10;;;0.10;;
73428;SDS011;61643;49.564;17.412;2023-10-08T06:03:19;0.00;;;0.00;;
73428;SDS011;61643;49.564;17.412;2023-10-08T06:05:59;0.00;;;0.00;;
73428;SDS011;61643;49.564;17.412;2023-10-08T06:08:48;0.35;;;0.00;;
73428;SDS011;61643;49.564;17.412;2023-10-08T06:11:33;0.00;;;0.00;;
73428;SDS011;61643;49.564;17.412;2023-10-08T06:14:07;0.00;;;0.00;;
73428;SDS011;61643;49.564;17.412;2023-10-08T06:16:39;0.00;;;0.00;;
73428;SDS011;61643;49.564;17.412;2023-10-08T06:19:13;0.38;;;0.00;;
73428;SDS011;61643;49.564;17.412;2023-10-08T06:21:40;0.05;;;0.05;;
73428;SDS011;61643;49.564;17.412;2023-10-08T06:24:07;0.10;;;0.00;;
73428;SDS011;61643;49.564;17.412;2023-10-08T06:26:42;0.00;;;0.00;;
73428;SDS011;61643;49.564;17.412;2023-10-08T06:29:11;1.05;;;0.60;;
73428;SDS011;61643;49.564;17.412;2023-10-08T06:31:57;0.10;;;0.00;;
73428;SDS011;61643;49.564;17.412;2023-10-08T06:34:30;0.20;;;0.00;;
73428;SDS011;61643;49.564;17.412;2023-10-08T06:36:58;0.03;;;0.00;;
73428;SDS011;61643;49.564;17.412;2023-10-08T06:39:25;0.40;;;0.00;;
73428;SDS011;61643;49.564;17.412;2023-10-08T06:41:59;0.00;;;0.00;;
73428;SDS011;61643;49.564;17.412;2023-10-08T06:44:25;0.00;;;0.00;;
73428;SDS011;61643;49.564;17.412;2023-10-08T06:46:53;0.10;;;0.10;;
73428;SDS011;61643;49.564;17.412;2023-10-08T06:49:21;0.17;;;0.03;;
73428;SDS011;61643;49.564;17.412;2023-10-08T06:51:49;0.22;;;0.00;;
73428;SDS011;61643;49.564;17.412;2023-10-08T06:54:17;0.20;;;0.10;;
73428;SDS011;61643;49.564;17.412;2023-10-08T06:56:44;0.13;;;0.00;;
73428;SDS011;61643;49.564;17.412;2023-10-08T07:01:43;0.05;;;0.00;;
73428;SDS011;61643;49.564;17.412;2023-10-08T07:04:13;0.30;;;0.25;;
73428;SDS011;61643;49.564;17.412;2023-10-08T07:06:39;0.20;;;0.10;;
73428;SDS011;61643;49.564;17.412;2023-10-08T07:09:07;2.75;;;1.50;;
73428;SDS011;61643;49.564;17.412;2023-10-08T07:11:55;0.30;;;0.30;;
73428;SDS011;61643;49.564;17.412;2023-10-08T07:14:22;0.20;;;0.10;;
73428;SDS011;61643;49.564;17.412;2023-10-08T07:16:56;0.20;;;0.20;;
73428;SDS011;61643;49.564;17.412;2023-10-08T07:19:25;0.10;;;0.10;;
73428;SDS011;61643;49.564;17.412;2023-10-08T07:22:03;0.20;;;0.20;;
73428;SDS011;61643;49.564;17.412;2023-10-08T07:24:33;2.00;;;0.40;;
73428;SDS011;61643;49.564;17.412;2023-10-08T07:27:03;0.60;;;0.60;;
73428;SDS011;61643;49.564;17.412;2023-10-08T07:29:35;0.90;;;0.70;;
73428;SDS011;61643;49.564;17.412;2023-10-08T07:32:02;1.15;;;0.70;;
73428;SDS011;61643;49.564;17.412;2023-10-08T07:34:38;0.30;;;0.25;;
73428;SDS011;61643;49.564;17.412;2023-10-08T07:37:04;0.75;;;0.30;;
73428;SDS011;61643;49.564;17.412;2023-10-08T07:39:37;0.30;;;0.28;;
73428;SDS011;61643;49.564;17.412;2023-10-08T07:42:12;0.63;;;0.30;;
73428;SDS011;61643;49.564;17.412;2023-10-08T07:44:38;2.30;;;0.68;;
73428;SDS011;61643;49.564;17.412;2023-10-08T07:47:05;3.15;;;0.90;;
73428;SDS011;61643;49.564;17.412;2023-10-08T07:49:38;0.90;;;0.70;;
73428;SDS011;61643;49.564;17.412;2023-10-08T07:52:04;0.95;;;0.70;;
73428;SDS011;61643;49.564;17.412;2023-10-08T07:54:31;0.57;;;0.28;;
73428;SDS011;61643;49.564;17.412;2023-10-08T07:57:00;1.17;;;0.40;;
73428;SDS011;61643;49.564;17.412;2023-10-08T07:59:44;1.10;;;0.60;;
73428;SDS011;61643;49.564;17.412;2023-10-08T08:02:14;3.88;;;1.67;;
73428;SDS011;61643;49.564;17.412;2023-10-08T08:04:43;9.38;;;2.28;;
73428;SDS011;61643;49.564;17.412;2023-10-08T08:07:11;2.63;;;1.83;;
73428;SDS011;61643;49.564;17.412;2023-10-08T08:09:48;2.67;;;1.60;;
73428;SDS011;61643;49.564;17.412;2023-10-08T08:12:23;1.13;;;0.80;;
73428;SDS011;61643;49.564;17.412;2023-10-08T08:14:51;1.13;;;0.50;;
73428;SDS011;61643;49.564;17.412;2023-10-08T08:17:18;0.75;;;0.60;;
73428;SDS011;61643;49.564;17.412;2023-10-08T08:19:45;1.08;;;0.40;;
73428;SDS011;61643;49.564;17.412;2023-10-08T08:22:13;1.50;;;0.60;;
73428;SDS011;61643;49.564;17.412;2023-10-08T08:24:53;0.82;;;0.60;;
73428;SDS011;61643;49.564;17.412;2023-10-08T08:27:20;1.83;;;0.60;;
73428;SDS011;61643;49.564;17.412;2023-10-08T08:29:50;1.52;;;0.77;;
73428;SDS011;61643;49.564;17.412;2023-10-08T08:32:21;1.80;;;0.52;;
73428;SDS011;61643;49.564;17.412;2023-10-08T08:34:48;2.55;;;0.80;;
73428;SDS011;61643;49.564;17.412;2023-10-08T08:37:18;1.48;;;0.73;;
73428;SDS011;61643;49.564;17.412;2023-10-08T08:39:44;1.60;;;0.77;;
73428;SDS011;61643;49.564;17.412;2023-10-08T08:42:11;0.98;;;0.60;;
73428;SDS011;61643;49.564;17.412;2023-10-08T08:44:38;3.38;;;1.00;;
73428;SDS011;61643;49.564;17.412;2023-10-08T08:47:12;2.30;;;0.82;;
73428;SDS011;61643;49.564;17.412;2023-10-08T08:49:46;1.65;;;0.75;;
73428;SDS011;61643;49.564;17.412;2023-10-08T08:52:12;2.03;;;0.88;;
73428;SDS011;61643;49.564;17.412;2023-10-08T08:54:39;0.90;;;0.70;;
73428;SDS011;61643;49.564;17.412;2023-10-08T08:57:07;2.20;;;0.98;;
73428;SDS011;61643;49.564;17.412;2023-10-08T08:59:44;2.15;;;0.80;;
73428;SDS011;61643;49.564;17.412;2023-10-08T09:02:21;1.48;;;0.70;;
73428;SDS011;61643;49.564;17.412;2023-10-08T09:04:48;1.80;;;0.60;;
73428;SDS011;61643;49.564;17.412;2023-10-08T09:07:15;2.90;;;0.90;;
73428;SDS011;61643;49.564;17.412;2023-10-08T09:09:47;2.45;;;0.85;;
73428;SDS011;61643;49.564;17.412;2023-10-08T09:12:18;2.42;;;0.93;;
73428;SDS011;61643;49.564;17.412;2023-10-08T09:14:46;3.30;;;0.70;;
73428;SDS011;61643;49.564;17.412;2023-10-08T09:17:13;1.52;;;0.80;;
73428;SDS011;61643;49.564;17.412;2023-10-08T09:19:40;2.60;;;0.93;;
73428;SDS011;61643;49.564;17.412;2023-10-08T09:22:08;3.10;;;0.90;;
73428;SDS011;61643;49.564;17.412;2023-10-08T09:24:37;4.65;;;1.00;;
73428;SDS011;61643;49.564;17.412;2023-10-08T09:27:05;4.35;;;1.15;;
73428;SDS011;61643;49.564;17.412;2023-10-08T09:29:33;9.18;;;1.02;;
73428;SDS011;61643;49.564;17.412;2023-10-08T09:32:12;2.40;;;1.23;;
73428;SDS011;61643;49.564;17.412;2023-10-08T09:34:49;2.13;;;0.88;;
73428;SDS011;61643;49.564;17.412;2023-10-08T09:37:18;2.00;;;0.90;;
73428;SDS011;61643;49.564;17.412;2023-10-08T09:39:48;2.92;;;1.13;;
73428;SDS011;61643;49.564;17.412;2023-10-08T09:42:16;3.40;;;0.90;;
73428;SDS011;61643;49.564;17.412;2023-10-08T09:44:47;1.85;;;0.70;;
73428;SDS011;61643;49.564;17.412;2023-10-08T09:47:13;2.25;;;0.88;;
73428;SDS011;61643;49.564;17.412;2023-10-08T09:50:00;1.65;;;0.90;;
73428;SDS011;61643;49.564;17.412;2023-10-08T09:52:45;2.90;;;0.90;;
73428;SDS011;61643;49.564;17.412;2023-10-08T09:55:22;3.47;;;0.80;;
73428;SDS011;61643;49.564;17.412;2023-10-08T09:57:49;1.52;;;0.90;;
73428;SDS011;61643;49.564;17.412;2023-10-08T10:00:17;1.55;;;0.90;;
73428;SDS011;61643;49.564;17.412;2023-10-08T10:02:54;1.05;;;0.77;;
73428;SDS011;61643;49.564;17.412;2023-10-08T10:05:21;1.85;;;0.90;;
73428;SDS011;61643;49.564;17.412;2023-10-08T10:07:47;1.90;;;0.90;;
73428;SDS011;61643;49.564;17.412;2023-10-08T10:10:24;3.65;;;1.15;;
73428;SDS011;61643;49.564;17.412;2023-10-08T10:12:59;2.85;;;0.70;;
73428;SDS011;61643;49.564;17.412;2023-10-08T10:15:29;2.47;;;1.00;;
73428;SDS011;61643;49.564;17.412;2023-10-08T10:17:58;1.60;;;0.75;;
73428;SDS011;61643;49.564;17.412;2023-10-08T10:20:34;4.35;;;0.90;;
73428;SDS011;61643;49.564;17.412;2023-10-08T10:23:50;2.85;;;1.00;;
73428;SDS011;61643;49.564;17.412;2023-10-08T10:25:59;2.70;;;1.02;;
73428;SDS011;61643;49.564;17.412;2023-10-08T10:28:27;1.30;;;0.70;;
73428;SDS011;61643;49.564;17.412;2023-10-08T10:30:54;3.55;;;0.95;;
73428;SDS011;61643;49.564;17.412;2023-10-08T10:33:21;2.42;;;0.80;;
73428;SDS011;61643;49.564;17.412;2023-10-08T10:35:57;2.88;;;1.00;;
73428;SDS011;61643;49.564;17.412;2023-10-08T10:38:25;3.60;;;1.15;;
73428;SDS011;61643;49.564;17.412;2023-10-08T10:40:51;1.67;;;1.00;;
73428;SDS011;61643;49.564;17.412;2023-10-08T10:43:24;2.47;;;0.90;;
73428;SDS011;61643;49.564;17.412;2023-10-08T10:46:00;1.80;;;1.05;;
73428;SDS011;61643;49.564;17.412;2023-10-08T10:48:45;3.35;;;0.90;;
73428;SDS011;61643;49.564;17.412;2023-10-08T10:51:22;1.20;;;0.82;;
73428;SDS011;61643;49.564;17.412;2023-10-08T10:53:48;2.30;;;1.20;;
73428;SDS011;61643;49.564;17.412;2023-10-08T10:56:34;2.42;;;1.20;;
73428;SDS011;61643;49.564;17.412;2023-10-08T10:59:05;3.10;;;0.90;;
73428;SDS011;61643;49.564;17.412;2023-10-08T11:02:04;3.30;;;1.20;;
73428;SDS011;61643;49.564;17.412;2023-10-08T11:04:34;2.17;;;1.00;;
73428;SDS011;61643;49.564;17.412;2023-10-08T11:07:14;2.05;;;1.17;;
73428;SDS011;61643;49.564;17.412;2023-10-08T11:09:46;3.13;;;1.10;;
73428;SDS011;61643;49.564;17.412;2023-10-08T11:12:13;1.95;;;1.10;;
73428;SDS011;61643;49.564;17.412;2023-10-08T11:14:46;3.40;;;0.93;;
73428;SDS011;61643;49.564;17.412;2023-10-08T11:17:13;2.65;;;1.10;;
73428;SDS011;61643;49.564;17.412;2023-10-08T11:19:41;2.53;;;1.60;;
73428;SDS011;61643;49.564;17.412;2023-10-08T11:22:14;2.30;;;1.40;;
73428;SDS011;61643;49.564;17.412;2023-10-08T11:24:44;7.43;;;2.35;;
73428;SDS011;61643;49.564;17.412;2023-10-08T11:27:13;5.60;;;2.67;;
73428;SDS011;61643;49.564;17.412;2023-10-08T11:29:48;2.78;;;1.30;;
73428;SDS011;61643;49.564;17.412;2023-10-08T11:32:22;12.32;;;4.95;;
73428;SDS011;61643;49.564;17.412;2023-10-08T11:34:57;5.40;;;2.60;;
73428;SDS011;61643;49.564;17.412;2023-10-08T11:37:44;2.88;;;1.27;;
73428;SDS011;61643;49.564;17.412;2023-10-08T11:40:21;2.55;;;1.20;;
73428;SDS011;61643;49.564;17.412;2023-10-08T11:43:14;6.28;;;1.80;;
73428;SDS011;61643;49.564;17.412;2023-10-08T11:45:44;3.55;;;1.40;;
73428;SDS011;61643;49.564;17.412;2023-10-08T11:48:16;2.05;;;1.30;;
73428;SDS011;61643;49.564;17.412;2023-10-08T11:50:54;3.88;;;1.25;;
73428;SDS011;61643;49.564;17.412;2023-10-08T11:53:23;3.28;;;1.10;;
73428;SDS011;61643;49.564;17.412;2023-10-08T11:55:50;2.05;;;1.02;;
73428;SDS011;61643;49.564;17.412;2023-10-08T11:58:22;2.28;;;0.90;;
73428;SDS011;61643;49.564;17.412;2023-10-08T12:01:01;2.95;;;1.17;;
73428;SDS011;61643;49.564;17.412;2023-10-08T12:03:29;2.10;;;1.02;;
73428;SDS011;61643;49.564;17.412;2023-10-08T12:05:57;2.47;;;1.13;;
73428;SDS011;61643;49.564;17.412;2023-10-08T12:08:26;3.42;;;1.38;;
73428;SDS011;61643;49.564;17.412;2023-10-08T12:10:54;1.83;;;1.00;;
73428;SDS011;61643;49.564;17.412;2023-10-08T12:13:20;2.35;;;1.10;;
73428;SDS011;61643;49.564;17.412;2023-10-08T12:15:54;1.17;;;0.82;;
73428;SDS011;61643;49.564;17.412;2023-10-08T12:18:52;2.78;;;0.90;;
73428;SDS011;61643;49.564;17.412;2023-10-08T12:21:24;2.72;;;1.00;;
73428;SDS011;61643;49.564;17.412;2023-10-08T12:23:51;2.20;;;1.00;;
73428;SDS011;61643;49.564;17.412;2023-10-08T12:26:18;3.60;;;1.17;;
73428;SDS011;61643;49.564;17.412;2023-10-08T12:28:45;2.92;;;0.90;;
73428;SDS011;61643;49.564;17.412;2023-10-08T12:31:16;3.35;;;1.45;;
73428;SDS011;61643;49.564;17.412;2023-10-08T12:33:46;3.83;;;1.17;;
73428;SDS011;61643;49.564;17.412;2023-10-08T12:36:13;2.58;;;0.90;;
73428;SDS011;61643;49.564;17.412;2023-10-08T12:38:40;4.30;;;1.17;;
73428;SDS011;61643;49.564;17.412;2023-10-08T12:41:07;2.33;;;1.20;;
73428;SDS011;61643;49.564;17.412;2023-10-08T12:43:38;2.15;;;1.00;;
73428;SDS011;61643;49.564;17.412;2023-10-08T12:46:05;2.72;;;1.17;;
73428;SDS011;61643;49.564;17.412;2023-10-08T12:48:39;6.22;;;1.38;;
73428;SDS011;61643;49.564;17.412;2023-10-08T12:51:05;3.38;;;1.10;;
73428;SDS011;61643;49.564;17.412;2023-10-08T12:53:32;2.70;;;1.00;;
73428;SDS011;61643;49.564;17.412;2023-10-08T12:56:05;2.70;;;1.13;;
73428;SDS011;61643;49.564;17.412;2023-10-08T12:58:34;2.35;;;0.90;;
73428;SDS011;61643;49.564;17.412;2023-10-08T13:01:12;3.83;;;1.05;;
73428;SDS011;61643;49.564;17.412;2023-10-08T13:03:39;1.75;;;1.13;;
73428;SDS011;61643;49.564;17.412;2023-10-08T13:06:13;3.45;;;1.00;;
73428;SDS011;61643;49.564;17.412;2023-10-08T13:08:50;3.63;;;1.20;;
73428;SDS011;61643;49.564;17.412;2023-10-08T13:11:21;2.08;;;1.00;;
73428;SDS011;61643;49.564;17.412;2023-10-08T13:13:52;3.15;;;0.90;;
73428;SDS011;61643;49.564;17.412;2023-10-08T13:16:19;2.72;;;1.00;;
73428;SDS011;61643;49.564;17.412;2023-10-08T13:18:47;3.13;;;1.00;;
73428;SDS011;61643;49.564;17.412;2023-10-08T13:21:14;2.00;;;1.40;;
73428;SDS011;61643;49.564;17.412;2023-10-08T13:23:40;1.90;;;1.20;;
73428;SDS011;61643;49.564;17.412;2023-10-08T13:26:06;5.05;;;1.80;;
73428;SDS011;61643;49.564;17.412;2023-10-08T13:28:33;3.65;;;1.50;;
73428;SDS011;61643;49.564;17.412;2023-10-08T13:31:03;3.78;;;1.85;;
73428;SDS011;61643;49.564;17.412;2023-10-08T13:33:36;4.35;;;2.33;;
73428;SDS011;61643;49.564;17.412;2023-10-08T13:36:06;3.03;;;1.13;;
73428;SDS011;61643;49.564;17.412;2023-10-08T13:38:35;1.33;;;0.85;;
73428;SDS011;61643;49.564;17.412;2023-10-08T13:41:05;1.40;;;0.82;;
73428;SDS011;61643;49.564;17.412;2023-10-08T13:43:44;1.67;;;0.80;;
73428;SDS011;61643;49.564;17.412;2023-10-08T13:46:14;3.40;;;1.73;;
73428;SDS011;61643;49.564;17.412;2023-10-08T13:48:43;4.22;;;2.10;;
73428;SDS011;61643;49.564;17.412;2023-10-08T13:51:14;2.13;;;1.00;;
73428;SDS011;61643;49.564;17.412;2023-10-08T13:56:25;2.08;;;0.60;;
73428;SDS011;61643;49.564;17.412;2023-10-08T13:58:53;1.35;;;1.00;;
73428;SDS011;61643;49.564;17.412;2023-10-08T14:01:33;0.93;;;0.70;;
73428;SDS011;61643;49.564;17.412;2023-10-08T14:04:00;1.98;;;0.98;;
73428;SDS011;61643;49.564;17.412;2023-10-08T14:06:34;1.67;;;0.73;;
73428;SDS011;61643;49.564;17.412;2023-10-08T14:09:01;1.23;;;0.90;;
73428;SDS011;61643;49.564;17.412;2023-10-08T14:11:32;3.17;;;1.70;;
73428;SDS011;61643;49.564;17.412;2023-10-08T14:13:59;2.15;;;1.02;;
73428;SDS011;61643;49.564;17.412;2023-10-08T14:16:28;2.85;;;0.80;;
73428;SDS011;61643;49.564;17.412;2023-10-08T14:18:55;1.85;;;0.70;;
73428;SDS011;61643;49.564;17.412;2023-10-08T14:21:25;1.63;;;0.80;;
73428;SDS011;61643;49.564;17.412;2023-10-08T14:24:09;2.00;;;0.98;;
73428;SDS011;61643;49.564;17.412;2023-10-08T14:26:41;1.83;;;0.90;;
73428;SDS011;61643;49.564;17.412;2023-10-08T14:29:08;1.65;;;0.70;;
73428;SDS011;61643;49.564;17.412;2023-10-08T14:31:36;2.60;;;0.90;;
73428;SDS011;61643;49.564;17.412;2023-10-08T14:36:44;1.70;;;0.77;;
73428;SDS011;61643;49.564;17.412;2023-10-08T14:39:30;4.68;;;1.77;;
73428;SDS011;61643;49.564;17.412;2023-10-08T14:42:16;1.13;;;0.90;;
73428;SDS011;61643;49.564;17.412;2023-10-08T14:45:01;2.88;;;1.05;;
73428;SDS011;61643;49.564;17.412;2023-10-08T14:47:27;3.80;;;1.60;;
73428;SDS011;61643;49.564;17.412;2023-10-08T14:49:54;1.83;;;0.98;;
73428;SDS011;61643;49.564;17.412;2023-10-08T14:52:20;3.83;;;2.33;;
73428;SDS011;61643;49.564;17.412;2023-10-08T14:54:46;1.30;;;1.15;;
73428;SDS011;61643;49.564;17.412;2023-10-08T14:57:12;1.63;;;0.90;;
73428;SDS011;61643;49.564;17.412;2023-10-08T14:59:40;1.58;;;0.80;;
73428;SDS011;61643;49.564;17.412;2023-10-08T15:02:07;1.80;;;0.80;;
73428;SDS011;61643;49.564;17.412;2023-10-08T15:04:36;1.58;;;0.80;;
73428;SDS011;61643;49.564;17.412;2023-10-08T15:07:05;1.27;;;0.70;;
73428;SDS011;61643;49.564;17.412;2023-10-08T15:09:36;2.55;;;1.00;;
73428;SDS011;61643;49.564;17.412;2023-10-08T15:12:05;1.35;;;0.70;;
73428;SDS011;61643;49.564;17.412;2023-10-08T15:14:35;2.03;;;1.20;;